createdAt,value
2022-08-17T00:02:25.232Z,23.60
2022-08-17T00:04:55.923Z,23.63
2022-08-17T00:07:23.215Z,23.65
2022-08-17T00:09:50.533Z,23.66
2022-08-17T00:12:43.070Z,23.66
2022-08-17T00:15:10.546Z,23.64
2022-08-17T00:17:38.345Z,23.66
2022-08-17T00:20:07.962Z,23.66
2022-08-17T00:22:36.625Z,23.63
2022-08-17T00:25:07.306Z,23.63
2022-08-17T00:27:35.033Z,23.58
2022-08-17T00:30:02.333Z,23.55
2022-08-17T00:33:12.120Z,23.51
2022-08-17T00:35:23.242Z,23.47
2022-08-17T00:37:50.676Z,23.45
2022-08-17T00:40:18.769Z,23.42
2022-08-17T00:42:47.954Z,23.39
2022-08-17T00:45:17.574Z,23.36
2022-08-17T00:47:44.783Z,23.36
2022-08-17T00:50:15.301Z,23.35
2022-08-17T00:52:49.594Z,23.32
2022-08-17T00:55:17.545Z,23.27
2022-08-17T00:57:50.293Z,23.25
2022-08-17T01:00:26.579Z,23.21
2022-08-17T01:02:58.170Z,23.19
2022-08-17T01:05:27.726Z,23.15
2022-08-17T01:07:59.232Z,23.12
2022-08-17T01:11:00.144Z,23.09
2022-08-17T01:13:21.367Z,23.05
2022-08-17T01:15:53.502Z,23.04
2022-08-17T01:18:20.797Z,23.04
2022-08-17T01:20:50.887Z,23.04
2022-08-17T01:23:22.304Z,23.02
2022-08-17T01:25:51.131Z,22.97
2022-08-17T01:28:52.810Z,22.98
2022-08-17T01:31:08.948Z,22.93
2022-08-17T01:33:36.529Z,22.90
2022-08-17T01:36:05.045Z,22.89
2022-08-17T01:38:34.217Z,22.87
2022-08-17T01:41:04.809Z,22.84
2022-08-17T01:43:37.523Z,22.84
2022-08-17T01:46:05.694Z,22.84
2022-08-17T01:48:34.890Z,22.84
2022-08-17T01:51:02.604Z,22.81
2022-08-17T01:53:36.698Z,22.79
2022-08-17T01:56:08.797Z,22.78
2022-08-17T01:58:38.171Z,22.74
2022-08-17T02:01:06.108Z,22.73
2022-08-17T02:03:35.297Z,22.73
2022-08-17T02:06:03.705Z,22.69
2022-08-17T02:08:38.923Z,22.68
2022-08-17T02:11:23.061Z,22.64
2022-08-17T02:13:57.809Z,22.62
2022-08-17T02:16:36.974Z,22.59
2022-08-17T02:19:07.463Z,22.57
2022-08-17T02:21:35.411Z,22.57
2022-08-17T02:24:05.876Z,22.53
2022-08-17T02:26:33.222Z,22.52
2022-08-17T02:29:00.440Z,22.52
2022-08-17T02:31:27.644Z,22.52
2022-08-17T02:34:00.282Z,22.48
2022-08-17T02:36:33.101Z,22.46
2022-08-17T02:39:01.607Z,22.45
2022-08-17T02:41:30.514Z,22.48
2022-08-17T02:43:57.683Z,22.52
2022-08-17T02:46:24.981Z,22.55
2022-08-17T02:48:52.127Z,22.58
2022-08-17T02:51:19.273Z,22.58
2022-08-17T02:53:46.865Z,22.60
2022-08-17T02:56:14.076Z,22.62
2022-08-17T02:58:42.829Z,22.62
2022-08-17T03:01:10.687Z,22.60
2022-08-17T03:03:38.968Z,22.60
2022-08-17T03:06:07.807Z,22.60
2022-08-17T03:08:35.020Z,22.60
2022-08-17T03:11:02.151Z,22.58
2022-08-17T03:13:30.827Z,22.57
2022-08-17T03:15:59.451Z,22.52
2022-08-17T03:18:28.018Z,22.46
2022-08-17T03:20:57.915Z,22.42
2022-08-17T03:23:27.203Z,22.44
2022-08-17T03:25:55.696Z,22.44
2022-08-17T03:28:23.794Z,22.45
2022-08-17T03:30:51.711Z,22.43
2022-08-17T03:33:20.695Z,22.39
2022-08-17T03:35:47.884Z,22.38
2022-08-17T03:38:17.390Z,22.36
2022-08-17T03:40:57.675Z,22.33
2022-08-17T03:43:28.750Z,22.31
2022-08-17T03:46:34.303Z,22.30
2022-08-17T03:49:23.004Z,22.18
2022-08-17T03:52:08.925Z,22.12
2022-08-17T03:54:54.538Z,22.06
2022-08-17T03:57:21.846Z,22.10
2022-08-17T03:59:49.515Z,22.09
2022-08-17T04:02:19.916Z,22.05
2022-08-17T04:04:52.338Z,22.05
2022-08-17T04:07:20.876Z,22.07
2022-08-17T04:09:48.056Z,22.11
2022-08-17T04:12:16.240Z,22.17
2022-08-17T04:14:53.521Z,22.21
2022-08-17T04:17:23.590Z,22.21
2022-08-17T04:19:53.186Z,22.20
2022-08-17T04:22:30.508Z,22.20
2022-08-17T04:25:03.469Z,22.27
2022-08-17T04:27:30.649Z,22.32
2022-08-17T04:29:58.625Z,22.40
2022-08-17T04:33:04.290Z,22.44
2022-08-17T04:35:18.505Z,22.42
2022-08-17T04:37:45.883Z,22.46
2022-08-17T04:40:31.791Z,22.50
2022-08-17T04:43:04.109Z,22.68
2022-08-17T04:45:32.296Z,22.80
2022-08-17T04:48:00.139Z,22.89
2022-08-17T04:50:28.698Z,23.02
2022-08-17T04:52:56.943Z,23.17
2022-08-17T04:55:24.381Z,23.27
2022-08-17T04:57:51.541Z,23.38
2022-08-17T05:00:19.198Z,23.53
2022-08-17T05:02:50.068Z,23.67
2022-08-17T05:05:19.358Z,23.85
2022-08-17T05:07:51.494Z,24.02
2022-08-17T05:10:20.101Z,24.14
2022-08-17T05:12:47.586Z,24.31
2022-08-17T05:15:16.378Z,24.41
2022-08-17T05:17:43.795Z,24.60
2022-08-17T05:20:11.579Z,24.75
2022-08-17T05:22:51.181Z,24.90
2022-08-17T05:25:20.331Z,25.02
2022-08-17T05:27:53.206Z,25.24
2022-08-17T05:30:21.553Z,25.40
2022-08-17T05:32:54.184Z,25.61
2022-08-17T05:35:22.307Z,25.81
2022-08-17T05:37:51.110Z,25.99
2022-08-17T05:40:19.011Z,26.21
2022-08-17T05:42:46.236Z,26.40
2022-08-17T05:45:15.909Z,26.66
2022-08-17T05:47:51.394Z,26.81
2022-08-17T05:50:27.023Z,26.99
2022-08-17T05:53:03.873Z,27.17
2022-08-17T05:55:37.294Z,27.50
2022-08-17T05:58:13.435Z,27.75
2022-08-17T06:00:47.927Z,28.03
2022-08-17T06:03:29.056Z,28.23
2022-08-17T06:06:06.281Z,28.45
2022-08-17T06:08:41.967Z,28.73
2022-08-17T06:11:19.742Z,28.94
2022-08-17T06:14:15.972Z,29.22
2022-08-17T06:16:46.364Z,29.37
2022-08-17T06:19:18.687Z,29.50
2022-08-17T06:21:49.207Z,29.69
2022-08-17T06:24:28.378Z,29.81
2022-08-17T06:27:01.966Z,29.88
2022-08-17T06:29:38.665Z,30.10
2022-08-17T06:32:09.239Z,30.29
2022-08-17T06:34:40.229Z,30.50
2022-08-17T06:37:19.282Z,30.63
2022-08-17T06:39:57.876Z,30.78
2022-08-17T06:42:54.003Z,30.87
2022-08-17T06:45:27.163Z,31.03
2022-08-17T06:47:59.627Z,31.15
2022-08-17T06:50:35.992Z,31.32
2022-08-17T06:53:11.858Z,31.56
2022-08-17T06:55:48.881Z,31.77
2022-08-17T06:58:22.317Z,31.71
2022-08-17T07:00:56.634Z,31.83
2022-08-17T07:03:37.594Z,31.93
2022-08-17T07:06:08.742Z,31.99
2022-08-17T07:08:47.565Z,31.90
2022-08-17T07:11:19.434Z,31.95
2022-08-17T07:13:55.368Z,32.05
2022-08-17T07:16:27.534Z,32.21
2022-08-17T07:18:57.296Z,32.40
2022-08-17T07:21:39.505Z,32.57
2022-08-17T07:24:29.257Z,32.56
2022-08-17T07:27:08.598Z,32.68
2022-08-17T07:29:40.431Z,32.72
2022-08-17T07:32:09.950Z,32.74
2022-08-17T07:35:02.491Z,32.72
2022-08-17T07:37:33.691Z,32.85
2022-08-17T07:40:17.174Z,33.07
2022-08-17T07:43:00.947Z,33.11
2022-08-17T07:45:47.042Z,33.11
2022-08-17T07:48:20.101Z,32.96
2022-08-17T07:50:49.709Z,32.85
2022-08-17T07:53:19.291Z,32.74
2022-08-17T07:55:46.611Z,32.83
2022-08-17T07:58:19.454Z,32.93
2022-08-17T08:01:02.129Z,33.09
2022-08-17T08:03:32.104Z,33.42
2022-08-17T08:06:02.072Z,33.60
2022-08-17T08:08:33.258Z,33.69
2022-08-17T08:11:06.586Z,33.88
2022-08-17T08:13:42.403Z,34.10
2022-08-17T08:16:21.208Z,34.26
2022-08-17T08:18:54.278Z,34.38
2022-08-17T08:21:31.574Z,34.50
2022-08-17T08:24:09.682Z,34.38
2022-08-17T08:26:41.172Z,34.55
2022-08-17T08:29:22.598Z,34.71
2022-08-17T08:32:03.070Z,34.72
2022-08-17T08:34:44.527Z,34.94
2022-08-17T08:37:40.553Z,35.19
2022-08-17T08:40:21.705Z,35.04
2022-08-17T08:42:56.729Z,34.94
2022-08-17T08:45:32.194Z,34.97
2022-08-17T08:48:46.237Z,35.18
2022-08-17T08:51:11.165Z,35.28
2022-08-17T08:53:49.020Z,35.45
2022-08-17T09:07:29.255Z,36.77
2022-08-17T09:10:11.928Z,36.75
2022-08-17T09:12:47.645Z,36.79
2022-08-17T09:15:20.272Z,37.00
2022-08-17T09:18:14.602Z,37.08
2022-08-17T09:20:50.163Z,37.36
2022-08-17T09:23:32.575Z,37.65
2022-08-17T09:26:06.364Z,37.82
2022-08-17T09:28:39.351Z,37.88
2022-08-17T09:31:09.590Z,37.85
2022-08-17T09:33:43.105Z,37.95
2022-08-17T09:36:15.758Z,38.06
2022-08-17T09:38:58.083Z,38.01
2022-08-17T09:41:33.479Z,37.86
2022-08-17T09:44:06.959Z,37.91
2022-08-17T09:46:41.206Z,37.99
2022-08-17T09:49:15.077Z,38.15
2022-08-17T09:51:47.401Z,38.37
2022-08-17T09:54:38.599Z,38.52
2022-08-17T09:57:31.659Z,38.67
2022-08-17T10:00:18.875Z,38.86
2022-08-17T10:03:16.424Z,38.97
2022-08-17T10:05:49.670Z,39.05
2022-08-17T10:08:35.161Z,39.01
2022-08-17T10:11:19.057Z,38.99
2022-08-17T10:13:54.005Z,39.16
2022-08-17T10:16:40.170Z,39.31
2022-08-17T10:19:14.938Z,39.34
2022-08-17T10:22:26.428Z,39.37
2022-08-17T10:25:23.685Z,39.36
2022-08-17T10:27:58.214Z,39.41
2022-08-17T10:30:29.363Z,39.47
2022-08-17T10:32:59.786Z,39.48
2022-08-17T10:35:34.073Z,39.49
2022-08-17T10:38:28.441Z,39.49
2022-08-17T10:41:00.602Z,39.56
2022-08-17T10:43:41.865Z,39.53
2022-08-17T10:46:30.532Z,39.68
2022-08-17T10:49:23.272Z,39.52
2022-08-17T10:51:53.535Z,39.63
2022-08-17T10:54:39.783Z,39.74
2022-08-17T10:57:38.027Z,39.54
2022-08-17T11:00:15.514Z,39.56
2022-08-17T11:02:50.206Z,39.62
2022-08-17T11:05:47.354Z,39.79
2022-08-17T11:08:48.627Z,39.71
2022-08-17T11:11:50.012Z,39.51
2022-08-17T11:14:37.530Z,39.49
2022-08-17T11:17:24.293Z,39.67
2022-08-17T11:20:08.386Z,39.76
2022-08-17T11:22:57.923Z,39.55
2022-08-17T11:25:35.312Z,39.30
2022-08-17T11:28:13.193Z,39.28
2022-08-17T11:30:50.853Z,39.34
2022-08-17T11:33:55.759Z,38.91
2022-08-17T11:36:48.469Z,38.57
2022-08-17T11:39:37.778Z,38.76
2022-08-17T11:42:11.872Z,38.78
2022-08-17T11:44:51.328Z,38.66
2022-08-17T11:47:56.995Z,38.98
2022-08-17T11:51:09.119Z,39.28
2022-08-17T11:54:21.377Z,39.24
2022-08-17T11:56:47.914Z,38.88
2022-08-17T11:59:54.334Z,39.17
2022-08-17T12:02:50.907Z,39.49
2022-08-17T12:05:32.401Z,39.82
2022-08-17T12:08:19.607Z,40.06
2022-08-17T12:10:59.316Z,40.02
2022-08-17T12:13:35.190Z,39.85
2022-08-17T12:16:10.008Z,39.62
2022-08-17T12:18:39.772Z,39.49
2022-08-17T12:21:45.093Z,39.39
2022-08-17T12:24:25.748Z,39.11
2022-08-17T12:26:55.442Z,38.88
2022-08-17T12:29:39.082Z,38.97
2022-08-17T12:32:07.181Z,39.10
2022-08-17T12:34:38.319Z,39.13
2022-08-17T12:37:13.383Z,39.07
2022-08-17T12:39:52.430Z,39.29
2022-08-17T12:42:26.490Z,39.63
2022-08-17T12:44:53.665Z,39.87
2022-08-17T12:47:22.572Z,39.72
2022-08-17T12:49:52.275Z,39.27
2022-08-17T12:52:23.726Z,38.82
2022-08-17T12:54:56.746Z,38.41
2022-08-17T12:57:27.320Z,38.02
2022-08-17T12:59:58.983Z,37.84
2022-08-17T13:02:41.379Z,37.90
2022-08-17T13:05:17.929Z,37.72
2022-08-17T13:07:46.671Z,37.62
2022-08-17T13:10:21.487Z,37.85
2022-08-17T13:12:50.929Z,38.08
2022-08-17T13:15:22.861Z,38.38
2022-08-17T13:18:00.317Z,38.43
2022-08-17T13:20:27.657Z,38.42
2022-08-17T13:22:57.311Z,38.47
2022-08-17T13:25:27.390Z,38.67
2022-08-17T13:27:55.607Z,38.78
2022-08-17T13:30:28.344Z,38.89
2022-08-17T13:32:56.843Z,38.77
2022-08-17T13:35:44.198Z,38.69
2022-08-17T13:38:34.800Z,38.63
2022-08-17T13:41:04.127Z,38.53
2022-08-17T13:43:45.056Z,38.44
2022-08-17T13:46:18.366Z,38.33
2022-08-17T13:48:46.656Z,38.36
2022-08-17T13:51:28.845Z,38.33
2022-08-17T13:54:00.475Z,38.20
2022-08-17T13:56:46.939Z,38.12
2022-08-17T13:59:16.897Z,38.11
2022-08-17T14:02:06.321Z,38.22
2022-08-17T14:04:33.694Z,38.23
2022-08-17T14:07:04.186Z,38.22
2022-08-17T14:09:37.344Z,38.21
2022-08-17T14:12:11.390Z,38.14
2022-08-17T14:14:38.750Z,38.04
2022-08-17T14:17:06.146Z,37.98
2022-08-17T14:19:35.355Z,37.99
2022-08-17T14:22:03.723Z,38.07
2022-08-17T14:24:33.346Z,38.08
2022-08-17T14:27:03.516Z,37.81
2022-08-17T14:29:34.287Z,37.47
2022-08-17T14:32:06.365Z,37.19
2022-08-17T14:34:33.754Z,36.94
2022-08-17T14:37:00.975Z,36.95
2022-08-17T14:39:28.840Z,37.07
2022-08-17T14:41:56.311Z,37.18
2022-08-17T14:44:23.651Z,37.30
2022-08-17T14:46:52.953Z,37.39
2022-08-17T14:49:20.732Z,37.39
2022-08-17T14:51:48.200Z,37.36
2022-08-17T14:54:34.049Z,37.32
2022-08-17T14:57:25.859Z,37.30
2022-08-17T14:59:53.390Z,37.30
2022-08-17T15:02:30.202Z,37.27
2022-08-17T15:05:02.799Z,37.24
2022-08-17T15:07:30.747Z,37.19
2022-08-17T15:10:00.472Z,37.14
2022-08-17T15:12:32.837Z,37.09
2022-08-17T15:15:01.132Z,36.98
2022-08-17T15:17:45.167Z,36.80
2022-08-17T15:20:16.108Z,36.76
2022-08-17T15:22:45.725Z,36.66
2022-08-17T15:25:13.681Z,36.68
2022-08-17T15:27:41.326Z,36.71
2022-08-17T15:30:10.094Z,36.67
2022-08-17T15:32:41.291Z,36.64
2022-08-17T15:35:19.961Z,36.63
2022-08-17T15:37:53.501Z,36.57
2022-08-17T15:40:20.772Z,36.48
2022-08-17T15:42:47.888Z,36.36
2022-08-17T15:45:16.955Z,36.25
2022-08-17T15:47:46.624Z,36.15
2022-08-17T15:50:13.950Z,36.06
2022-08-17T15:52:43.102Z,35.99
2022-08-17T15:55:13.212Z,35.93
2022-08-17T15:57:40.881Z,35.86
2022-08-17T16:00:10.173Z,35.80
2022-08-17T16:03:44.223Z,35.73
2022-08-17T16:05:31.430Z,35.44
2022-08-17T16:07:59.877Z,35.23
2022-08-17T16:10:35.557Z,35.10
2022-08-17T16:13:04.116Z,34.94
2022-08-17T16:15:32.039Z,34.81
2022-08-17T16:17:59.491Z,34.68
2022-08-17T16:20:26.662Z,34.58
2022-08-17T16:22:55.727Z,34.42
2022-08-17T16:25:47.184Z,34.30
2022-08-17T16:28:14.418Z,34.16
2022-08-17T16:30:41.981Z,34.03
2022-08-17T16:33:11.695Z,33.90
2022-08-17T16:35:39.029Z,33.77
2022-08-17T16:38:07.658Z,33.68
2022-08-17T16:40:36.391Z,33.57
2022-08-17T16:43:06.972Z,33.51
2022-08-17T16:45:36.803Z,33.47
2022-08-17T16:48:04.682Z,33.41
2022-08-17T16:50:32.625Z,33.35
2022-08-17T16:53:06.647Z,33.28
2022-08-17T16:55:35.822Z,33.20
2022-08-17T16:58:03.606Z,33.11
2022-08-17T17:00:31.231Z,33.02
2022-08-17T17:03:19.578Z,32.95
2022-08-17T17:06:03.872Z,32.87
2022-08-17T17:08:39.485Z,32.80
2022-08-17T17:11:15.477Z,32.70
2022-08-17T17:13:47.247Z,32.62
2022-08-17T17:16:19.154Z,32.52
2022-08-17T17:19:01.686Z,32.43
2022-08-17T17:21:32.862Z,32.37
2022-08-17T17:24:06.895Z,32.31
2022-08-17T17:26:45.091Z,32.24
2022-08-17T17:29:47.427Z,32.17
2022-08-17T17:32:21.858Z,32.11
2022-08-17T17:34:53.342Z,32.05
2022-08-17T17:37:25.589Z,32.00
2022-08-17T17:39:55.308Z,31.96
2022-08-17T17:42:28.880Z,31.91
2022-08-17T17:45:05.957Z,31.84
2022-08-17T17:47:33.710Z,31.77
2022-08-17T17:50:02.751Z,31.72
2022-08-17T17:52:38.262Z,31.66
2022-08-17T17:55:16.024Z,31.62
2022-08-17T17:57:58.826Z,31.57
2022-08-17T18:00:33.231Z,31.54
2022-08-17T18:03:05.879Z,31.52
2022-08-17T18:05:45.634Z,31.46
2022-08-17T18:08:33.921Z,31.44
2022-08-17T18:11:12.635Z,31.40
2022-08-17T18:14:02.923Z,31.37
2022-08-17T18:16:32.951Z,31.34
2022-08-17T18:19:00.515Z,31.28
2022-08-17T18:21:37.982Z,31.16
2022-08-17T18:24:08.102Z,31.07
2022-08-17T18:26:49.107Z,31.04
2022-08-17T18:29:31.580Z,30.99
2022-08-17T18:32:38.434Z,30.97
2022-08-17T18:35:30.216Z,30.87
2022-08-17T18:38:20.801Z,30.77
2022-08-17T18:41:00.055Z,30.71
2022-08-17T18:43:44.192Z,30.67
2022-08-17T18:46:29.263Z,30.55
2022-08-17T18:48:59.859Z,30.44
2022-08-17T18:51:42.181Z,30.36
2022-08-17T18:54:18.288Z,30.27
2022-08-17T18:56:51.138Z,30.15
2022-08-17T18:59:27.301Z,29.96
2022-08-17T19:02:10.385Z,29.85
2022-08-17T19:04:58.229Z,29.74
2022-08-17T19:07:28.662Z,29.70
2022-08-17T19:10:02.898Z,29.67
2022-08-17T19:12:35.472Z,29.65
2022-08-17T19:15:03.198Z,29.59
2022-08-17T19:17:44.521Z,29.49
2022-08-17T19:20:17.530Z,29.48
2022-08-17T19:22:53.526Z,29.40
2022-08-17T19:25:25.090Z,29.31
2022-08-17T19:28:01.692Z,29.23
2022-08-17T19:30:30.457Z,29.17
2022-08-17T19:33:01.869Z,29.14
2022-08-17T19:35:39.965Z,29.12
2022-08-17T19:38:13.377Z,29.09
2022-08-17T19:40:53.122Z,29.03
2022-08-17T19:43:28.693Z,28.95
2022-08-17T19:46:06.137Z,28.87
2022-08-17T19:48:46.014Z,28.80
2022-08-17T19:51:17.915Z,28.70
2022-08-17T19:54:05.307Z,28.63
2022-08-17T19:56:41.438Z,28.54
2022-08-17T19:59:15.865Z,28.39
2022-08-17T20:01:45.331Z,28.18
2022-08-17T20:04:22.229Z,28.04
2022-08-17T20:06:49.726Z,28.01
2022-08-17T20:09:33.507Z,27.99
2022-08-17T20:12:05.466Z,27.99
2022-08-17T20:14:38.082Z,27.95
2022-08-17T20:17:06.048Z,27.94
2022-08-17T20:19:41.767Z,27.85
2022-08-17T20:22:12.055Z,27.83
2022-08-17T20:24:44.238Z,27.77
2022-08-17T20:27:15.525Z,27.70
2022-08-17T20:30:02.171Z,27.65
2022-08-17T20:32:32.454Z,27.59
2022-08-17T20:35:09.022Z,27.55
2022-08-17T20:37:43.247Z,27.47
2022-08-17T20:40:26.009Z,27.36
2022-08-17T20:42:53.623Z,27.27
2022-08-17T20:45:51.598Z,27.12
2022-08-17T20:48:37.299Z,26.94
2022-08-17T20:51:38.538Z,26.83
2022-08-17T20:54:34.931Z,26.78
2022-08-17T20:57:02.543Z,26.75
2022-08-17T21:00:02.375Z,26.71
2022-08-17T21:02:29.723Z,26.70
2022-08-17T21:05:25.126Z,26.67
2022-08-17T21:07:58.111Z,26.64
2022-08-17T21:10:37.584Z,26.56
2022-08-17T21:13:48.744Z,26.54
2022-08-17T21:16:31.310Z,26.44
2022-08-17T21:19:16.996Z,26.28
2022-08-17T21:21:58.069Z,26.19
2022-08-17T21:24:40.209Z,26.11
2022-08-17T21:27:24.579Z,26.09
2022-08-17T21:29:54.068Z,26.09
2022-08-17T21:32:29.909Z,26.02
2022-08-17T21:35:23.067Z,26.01
2022-08-17T21:37:54.182Z,25.99
2022-08-17T21:40:27.352Z,25.94
2022-08-17T21:42:58.140Z,25.93
2022-08-17T21:45:29.088Z,25.90
2022-08-17T21:48:14.040Z,25.83
2022-08-17T21:50:43.763Z,25.80
2022-08-17T21:53:21.761Z,25.77
2022-08-17T21:55:52.300Z,25.73
2022-08-17T21:58:30.477Z,25.69
2022-08-17T22:01:21.226Z,25.64
2022-08-17T22:03:56.618Z,25.57
2022-08-17T22:06:27.752Z,25.50
2022-08-17T22:09:01.041Z,25.42
2022-08-17T22:11:29.755Z,25.37
2022-08-17T22:14:05.829Z,25.33
2022-08-17T22:16:33.846Z,25.33
2022-08-17T22:19:01.198Z,25.31
2022-08-17T22:21:28.566Z,25.29
2022-08-17T22:24:05.099Z,25.28
2022-08-17T22:27:01.823Z,25.25
2022-08-17T22:29:53.166Z,25.16
2022-08-17T22:32:37.379Z,25.05
2022-08-17T22:35:32.877Z,25.00
2022-08-17T22:38:18.797Z,24.96
2022-08-17T22:40:49.882Z,24.92
2022-08-17T22:43:26.409Z,24.87
2022-08-17T22:45:56.760Z,24.84
2022-08-17T22:48:27.359Z,24.80
2022-08-17T22:51:13.673Z,24.78
2022-08-17T22:54:04.875Z,24.77
2022-08-17T22:56:51.066Z,24.78
2022-08-17T22:59:38.150Z,24.75
2022-08-17T23:02:17.366Z,24.72
2022-08-17T23:04:48.406Z,24.67
2022-08-17T23:07:17.465Z,24.61
2022-08-17T23:09:45.337Z,24.56
2022-08-17T23:12:16.185Z,24.54
2022-08-17T23:14:47.049Z,24.50
2022-08-17T23:17:14.498Z,24.48
2022-08-17T23:19:41.995Z,24.44
2022-08-17T23:22:10.455Z,24.41
2022-08-17T23:24:45.434Z,24.37
2022-08-17T23:27:13.005Z,24.35
2022-08-17T23:29:42.064Z,24.32
2022-08-17T23:32:14.725Z,24.32
2022-08-17T23:34:48.097Z,24.29
2022-08-17T23:37:16.903Z,24.21
2022-08-17T23:39:45.181Z,24.11
2022-08-17T23:42:16.598Z,24.13
2022-08-17T23:44:43.977Z,24.14
2022-08-17T23:47:12.621Z,24.11
2022-08-17T23:49:41.464Z,24.08
2022-08-17T23:52:15.169Z,24.07
2022-08-17T23:54:44.653Z,24.09
2022-08-17T23:57:13.950Z,24.04
2022-08-17T23:59:42.089Z,23.99
